createdAt,value
2023-03-27T00:02:09.067Z,1.77
2023-03-27T00:04:36.313Z,4.10
2023-03-27T00:07:03.842Z,2.13
2023-03-27T00:09:32.154Z,2.53
2023-03-27T00:12:00.803Z,1.60
2023-03-27T00:14:28.680Z,1.53
2023-03-27T00:16:57.359Z,2.43
2023-03-27T00:19:25.049Z,4.60
2023-03-27T00:21:53.258Z,2.50
2023-03-27T00:24:20.384Z,3.43
2023-03-27T00:26:47.576Z,5.27
2023-03-27T00:29:14.690Z,5.60
2023-03-27T00:31:41.955Z,3.13
2023-03-27T00:34:09.168Z,2.63
2023-03-27T00:36:36.374Z,5.07
2023-03-27T00:39:03.532Z,4.30
2023-03-27T00:41:31.079Z,4.17
2023-03-27T00:43:58.951Z,3.37
2023-03-27T00:46:27.782Z,3.83
2023-03-27T00:48:56.360Z,7.10
2023-03-27T00:51:24.593Z,4.10
2023-03-27T00:53:52.206Z,8.43
2023-03-27T00:56:20.102Z,10.10
2023-03-27T00:58:49.343Z,7.10
2023-03-27T01:01:17.151Z,9.53
2023-03-27T01:03:46.946Z,9.23
2023-03-27T01:06:16.868Z,8.27
2023-03-27T01:08:45.721Z,7.10
2023-03-27T01:11:30.409Z,7.30
2023-03-27T01:14:04.130Z,8.57
2023-03-27T01:16:31.229Z,8.97
2023-03-27T01:19:01.263Z,10.23
2023-03-27T01:21:47.820Z,13.13
2023-03-27T01:24:33.829Z,12.70
2023-03-27T01:27:01.488Z,12.90
2023-03-27T01:29:29.007Z,14.43
2023-03-27T01:31:56.166Z,13.60
2023-03-27T01:34:29.476Z,11.50
2023-03-27T01:36:59.422Z,11.57
2023-03-27T01:39:30.045Z,9.50
2023-03-27T01:42:09.404Z,11.83
2023-03-27T01:44:45.494Z,11.57
2023-03-27T01:47:12.848Z,12.87
2023-03-27T01:49:47.793Z,12.70
2023-03-27T01:52:17.290Z,10.97
2023-03-27T01:54:46.558Z,11.47
2023-03-27T01:57:16.541Z,16.87
2023-03-27T01:59:46.787Z,12.77
2023-03-27T02:02:15.756Z,16.87
2023-03-27T02:04:50.317Z,18.03
2023-03-27T02:07:20.937Z,14.63
2023-03-27T02:09:54.223Z,18.97
2023-03-27T02:12:26.345Z,21.37
2023-03-27T02:15:25.115Z,21.47
2023-03-27T02:18:05.012Z,12.60
2023-03-27T02:20:33.401Z,16.13
2023-03-27T02:23:00.748Z,19.53
2023-03-27T02:25:41.922Z,17.30
2023-03-27T02:28:09.038Z,26.23
2023-03-27T02:30:46.323Z,19.03
2023-03-27T02:33:33.718Z,20.97
2023-03-27T02:36:01.123Z,33.40
2023-03-27T02:38:42.312Z,19.70
2023-03-27T02:41:12.407Z,22.00
2023-03-27T02:43:58.368Z,17.20
2023-03-27T02:46:48.001Z,17.50
2023-03-27T02:49:20.730Z,25.80
2023-03-27T02:51:53.991Z,20.87
2023-03-27T02:54:33.322Z,19.80
2023-03-27T02:57:03.108Z,20.27
2023-03-27T02:59:36.709Z,19.03
2023-03-27T03:02:06.427Z,19.77
2023-03-27T03:04:41.807Z,17.57
2023-03-27T03:07:09.840Z,20.67
2023-03-27T03:09:40.570Z,18.63
2023-03-27T03:12:08.367Z,22.07
2023-03-27T03:14:36.869Z,18.67
2023-03-27T03:17:03.973Z,18.47
2023-03-27T03:19:31.407Z,15.30
2023-03-27T03:21:58.587Z,19.43
2023-03-27T03:24:27.632Z,16.40
2023-03-27T03:26:54.755Z,21.80
2023-03-27T03:29:21.878Z,26.40
2023-03-27T03:31:49.686Z,16.60
2023-03-27T03:34:18.631Z,21.67
2023-03-27T03:36:50.242Z,20.40
2023-03-27T03:39:18.429Z,20.50
2023-03-27T03:41:45.595Z,25.03
2023-03-27T03:44:12.784Z,21.37
2023-03-27T03:46:40.612Z,21.93
2023-03-27T03:49:08.028Z,16.87
2023-03-27T03:51:35.457Z,17.47
2023-03-27T03:54:02.834Z,18.73
2023-03-27T03:56:30.914Z,20.73
2023-03-27T03:58:58.768Z,18.30
2023-03-27T04:01:26.158Z,18.17
2023-03-27T04:03:53.515Z,16.70
2023-03-27T04:06:21.773Z,15.43
2023-03-27T04:08:50.003Z,20.00
2023-03-27T04:11:17.135Z,24.73
2023-03-27T04:13:44.237Z,20.60
2023-03-27T04:16:11.377Z,23.17
2023-03-27T04:18:41.173Z,22.23
2023-03-27T04:21:14.308Z,21.37
2023-03-27T04:23:45.563Z,16.30
2023-03-27T04:26:13.150Z,15.13
2023-03-27T04:28:40.621Z,21.53
2023-03-27T04:31:10.404Z,15.10
2023-03-27T04:33:39.401Z,24.33
2023-03-27T04:36:08.034Z,19.27
2023-03-27T04:38:39.601Z,20.77
2023-03-27T04:41:07.067Z,19.60
2023-03-27T04:43:36.852Z,23.63
2023-03-27T04:46:06.594Z,19.43
2023-03-27T04:48:34.250Z,20.17
2023-03-27T04:51:01.365Z,17.43
2023-03-27T04:53:30.403Z,21.33
2023-03-27T04:55:57.545Z,16.17
2023-03-27T04:58:28.445Z,28.87
2023-03-27T05:00:56.415Z,18.70
2023-03-27T05:03:24.297Z,18.60
2023-03-27T05:05:51.537Z,22.03
2023-03-27T05:08:19.047Z,17.93
2023-03-27T05:10:46.916Z,16.60
2023-03-27T05:13:14.221Z,25.27
2023-03-27T05:15:41.568Z,19.37
2023-03-27T05:18:09.106Z,18.43
2023-03-27T05:20:36.966Z,16.67
2023-03-27T05:23:04.479Z,20.83
2023-03-27T05:25:32.209Z,20.60
2023-03-27T05:28:00.374Z,19.00
2023-03-27T05:30:27.892Z,19.30
2023-03-27T05:32:59.200Z,17.03
2023-03-27T05:35:28.515Z,22.83
2023-03-27T05:37:57.337Z,20.47
2023-03-27T05:40:25.709Z,19.60
2023-03-27T05:42:53.577Z,12.60
2023-03-27T05:45:21.244Z,18.50
2023-03-27T05:47:49.768Z,22.83
2023-03-27T05:50:18.065Z,16.37
2023-03-27T05:52:45.473Z,18.03
2023-03-27T05:55:13.953Z,12.70
2023-03-27T05:57:41.763Z,15.10
2023-03-27T06:00:11.530Z,15.10
2023-03-27T06:02:43.478Z,14.20
2023-03-27T06:05:13.414Z,16.07
2023-03-27T06:07:42.560Z,16.10
2023-03-27T06:10:13.646Z,12.23
2023-03-27T06:12:41.651Z,16.23
2023-03-27T06:15:09.911Z,11.53
2023-03-27T06:17:39.492Z,18.47
2023-03-27T06:20:15.127Z,13.67
2023-03-27T06:22:44.833Z,16.70
2023-03-27T06:25:12.070Z,12.53
2023-03-27T06:27:39.292Z,13.97
2023-03-27T06:30:07.137Z,12.23
2023-03-27T06:32:36.449Z,13.23
2023-03-27T06:35:04.071Z,13.60
2023-03-27T06:37:36.798Z,11.33
2023-03-27T06:40:09.432Z,13.17
2023-03-27T06:42:40.753Z,10.63
2023-03-27T06:45:10.412Z,10.73
2023-03-27T06:47:44.526Z,14.80
2023-03-27T06:50:19.644Z,10.93
2023-03-27T06:52:48.261Z,11.07
2023-03-27T06:55:17.009Z,10.07
2023-03-27T06:57:48.290Z,10.93
2023-03-27T07:00:19.167Z,12.23
2023-03-27T07:03:06.659Z,10.20
2023-03-27T07:05:36.877Z,11.90
2023-03-27T07:08:18.981Z,12.02
2023-03-27T07:10:59.740Z,10.45
2023-03-27T07:13:27.486Z,10.65
2023-03-27T07:15:55.074Z,7.13
2023-03-27T07:18:22.737Z,9.98
2023-03-27T07:20:50.495Z,7.57
2023-03-27T07:23:17.712Z,9.18
2023-03-27T07:25:44.866Z,9.15
2023-03-27T07:28:15.003Z,10.43
2023-03-27T07:30:42.110Z,9.27
2023-03-27T07:33:09.659Z,11.35
2023-03-27T07:35:46.769Z,10.65
2023-03-27T07:38:14.467Z,9.93
2023-03-27T07:40:43.085Z,8.90
2023-03-27T07:43:10.300Z,9.18
2023-03-27T07:45:37.446Z,9.80
2023-03-27T07:48:08.413Z,12.80
2023-03-27T07:50:36.200Z,10.27
2023-03-27T07:53:03.981Z,8.30
2023-03-27T07:55:31.296Z,8.88
2023-03-27T07:58:02.375Z,8.73
2023-03-27T08:00:31.466Z,7.75
2023-03-27T08:03:09.315Z,10.30
2023-03-27T08:05:37.114Z,9.88
2023-03-27T08:08:05.006Z,13.65
2023-03-27T08:10:32.239Z,9.43
2023-03-27T08:12:59.529Z,9.68
2023-03-27T08:15:26.742Z,7.85
2023-03-27T08:17:56.638Z,10.43
2023-03-27T08:20:24.264Z,8.85
2023-03-27T08:22:54.811Z,10.93
2023-03-27T08:25:26.699Z,10.55
2023-03-27T08:27:53.854Z,8.50
2023-03-27T08:30:23.667Z,13.00
2023-03-27T08:32:51.697Z,11.23
2023-03-27T08:35:18.962Z,9.45
2023-03-27T08:37:46.527Z,11.60
2023-03-27T08:40:25.978Z,9.85
2023-03-27T08:42:54.404Z,10.30
2023-03-27T08:45:25.636Z,9.65
2023-03-27T08:47:57.111Z,8.63
2023-03-27T08:50:34.991Z,7.72
2023-03-27T08:53:02.924Z,11.70
2023-03-27T08:55:38.156Z,15.60
2023-03-27T08:58:05.346Z,11.18
2023-03-27T09:00:36.692Z,8.60
2023-03-27T09:03:06.937Z,10.10
2023-03-27T09:05:40.570Z,11.05
2023-03-27T09:08:34.918Z,10.20
2023-03-27T09:11:11.250Z,8.95
2023-03-27T09:13:58.690Z,7.05
2023-03-27T09:16:25.988Z,10.07
2023-03-27T09:19:11.640Z,9.70
2023-03-27T09:21:45.955Z,11.70
2023-03-27T09:24:16.515Z,9.52
2023-03-27T09:26:43.763Z,10.63
2023-03-27T09:29:20.585Z,10.52
2023-03-27T09:31:49.048Z,11.07
2023-03-27T09:34:18.536Z,13.15
2023-03-27T09:36:45.681Z,10.02
2023-03-27T09:39:15.472Z,12.27
2023-03-27T09:41:45.162Z,13.50
2023-03-27T09:44:13.833Z,11.23
2023-03-27T09:46:44.839Z,8.93
2023-03-27T09:49:13.526Z,10.18
2023-03-27T09:51:45.667Z,12.15
2023-03-27T09:54:14.433Z,9.63
2023-03-27T09:56:43.461Z,12.60
2023-03-27T09:59:21.290Z,11.93
2023-03-27T10:01:49.315Z,14.60
2023-03-27T10:04:17.972Z,12.17
2023-03-27T10:06:48.027Z,9.50
2023-03-27T10:09:22.656Z,11.07
2023-03-27T10:11:51.075Z,12.37
2023-03-27T10:14:19.669Z,15.53
2023-03-27T10:16:47.856Z,6.93
2023-03-27T10:19:42.095Z,9.53
2023-03-27T10:22:24.059Z,11.63
2023-03-27T10:24:53.624Z,13.13
2023-03-27T10:27:25.858Z,12.33
2023-03-27T10:29:53.161Z,7.27
2023-03-27T10:32:21.504Z,9.03
2023-03-27T10:34:51.616Z,6.40
2023-03-27T10:37:39.161Z,6.77
2023-03-27T10:40:09.272Z,10.17
2023-03-27T10:42:37.086Z,8.20
2023-03-27T10:45:04.478Z,6.87
2023-03-27T10:47:32.973Z,6.33
2023-03-27T10:50:02.851Z,9.10
2023-03-27T10:52:29.949Z,8.95
2023-03-27T10:55:00.607Z,9.68
2023-03-27T10:57:31.802Z,7.25
2023-03-27T11:00:08.299Z,7.25
2023-03-27T11:02:40.855Z,7.07
2023-03-27T11:05:11.163Z,5.75
2023-03-27T11:07:40.601Z,12.52
2023-03-27T11:10:07.889Z,5.60
2023-03-27T11:12:37.111Z,8.57
2023-03-27T11:15:07.465Z,11.10
2023-03-27T11:17:42.247Z,8.40
2023-03-27T11:20:17.765Z,6.53
2023-03-27T11:22:47.224Z,7.27
2023-03-27T11:25:25.763Z,10.23
2023-03-27T11:27:52.948Z,8.87
2023-03-27T11:30:34.038Z,11.47
2023-03-27T11:33:17.007Z,6.83
2023-03-27T11:35:47.042Z,8.47
2023-03-27T11:38:23.344Z,8.53
2023-03-27T11:40:51.375Z,8.73
2023-03-27T11:43:19.069Z,8.30
2023-03-27T11:45:53.026Z,9.73
2023-03-27T11:48:29.944Z,12.87
2023-03-27T11:51:02.916Z,7.43
2023-03-27T11:53:36.025Z,11.63
2023-03-27T11:56:15.549Z,9.87
2023-03-27T11:59:02.626Z,12.53
2023-03-27T12:01:45.815Z,16.70
2023-03-27T12:04:22.842Z,15.30
2023-03-27T12:06:53.043Z,8.27
2023-03-27T12:09:23.253Z,8.20
2023-03-27T12:12:00.228Z,5.77
2023-03-27T12:14:40.886Z,5.03
2023-03-27T12:17:24.982Z,7.63
2023-03-27T12:19:52.118Z,8.43
2023-03-27T12:22:31.460Z,5.90
2023-03-27T12:25:15.318Z,8.40
2023-03-27T12:28:01.401Z,8.33
2023-03-27T12:30:35.634Z,8.87
2023-03-27T12:33:21.791Z,7.37
2023-03-27T12:35:51.170Z,6.40
2023-03-27T12:38:29.728Z,10.77
2023-03-27T12:41:02.976Z,6.63
2023-03-27T12:43:31.779Z,7.30
2023-03-27T12:46:17.324Z,8.40
2023-03-27T12:48:51.178Z,12.10
2023-03-27T12:51:19.840Z,7.57
2023-03-27T12:53:48.293Z,8.00
2023-03-27T12:56:19.370Z,4.77
2023-03-27T12:58:51.523Z,6.40
2023-03-27T13:01:58.127Z,8.87
2023-03-27T13:04:42.830Z,8.25
2023-03-27T13:07:12.919Z,9.82
2023-03-27T13:09:42.355Z,4.57
2023-03-27T13:12:21.562Z,6.80
2023-03-27T13:15:06.919Z,3.90
2023-03-27T13:17:39.862Z,5.72
2023-03-27T13:20:25.993Z,6.75
2023-03-27T13:22:58.630Z,5.43
2023-03-27T13:25:31.627Z,7.07
2023-03-27T13:28:18.334Z,6.22
2023-03-27T13:30:48.761Z,5.53
2023-03-27T13:33:16.325Z,5.45
2023-03-27T13:35:53.490Z,6.55
2023-03-27T13:38:40.700Z,10.35
2023-03-27T13:41:26.564Z,7.95
2023-03-27T13:43:54.710Z,6.78
2023-03-27T13:46:24.865Z,7.70
2023-03-27T13:48:59.826Z,6.80
2023-03-27T13:51:45.642Z,5.37
2023-03-27T13:54:28.445Z,5.97
2023-03-27T13:57:00.388Z,5.55
2023-03-27T13:59:38.619Z,3.83
2023-03-27T14:02:12.754Z,5.07
2023-03-27T14:04:58.237Z,6.80
2023-03-27T14:07:31.784Z,3.53
2023-03-27T14:09:58.911Z,7.97
2023-03-27T14:12:44.938Z,4.77
2023-03-27T14:15:21.347Z,7.80
2023-03-27T14:18:11.523Z,4.77
2023-03-27T14:20:45.863Z,3.93
2023-03-27T14:23:23.449Z,5.23
2023-03-27T14:26:11.342Z,4.50
2023-03-27T14:28:49.439Z,6.63
2023-03-27T14:31:19.107Z,5.17
2023-03-27T14:34:01.752Z,5.97
2023-03-27T14:36:30.087Z,3.17
2023-03-27T14:39:16.482Z,7.15
2023-03-27T14:41:46.792Z,4.93
2023-03-27T14:44:13.898Z,5.10
2023-03-27T14:46:42.048Z,5.05
2023-03-27T14:49:14.727Z,6.15
2023-03-27T14:51:42.607Z,4.88
2023-03-27T14:54:14.723Z,2.67
2023-03-27T14:56:47.331Z,4.73
2023-03-27T14:59:25.057Z,5.70
2023-03-27T15:01:55.127Z,6.83
2023-03-27T15:04:22.270Z,2.37
2023-03-27T15:06:49.943Z,3.67
2023-03-27T15:09:23.308Z,3.53
2023-03-27T15:11:54.687Z,3.03
2023-03-27T15:14:26.107Z,5.50
2023-03-27T15:16:58.126Z,5.27
2023-03-27T15:19:30.799Z,8.00
2023-03-27T15:22:01.668Z,6.07
2023-03-27T15:24:44.605Z,3.93
2023-03-27T15:27:17.104Z,6.17
2023-03-27T15:30:07.989Z,4.87
2023-03-27T15:32:42.519Z,6.33
2023-03-27T15:35:13.791Z,4.50
2023-03-27T15:37:41.002Z,5.17
2023-03-27T15:40:09.748Z,6.77
2023-03-27T15:42:52.092Z,3.03
2023-03-27T15:45:23.840Z,5.43
2023-03-27T15:48:09.896Z,5.63
2023-03-27T15:50:37.812Z,4.90
2023-03-27T15:53:05.026Z,7.80
2023-03-27T15:55:47.260Z,6.57
2023-03-27T15:58:32.971Z,5.73
2023-03-27T16:01:01.348Z,4.57
2023-03-27T16:03:31.075Z,4.90
2023-03-27T16:05:59.140Z,6.13
2023-03-27T16:08:32.476Z,5.03
2023-03-27T16:11:00.620Z,5.80
2023-03-27T16:13:29.267Z,3.73
2023-03-27T16:15:58.208Z,4.30
2023-03-27T16:18:35.821Z,6.43
2023-03-27T16:21:23.214Z,4.30
2023-03-27T16:23:51.072Z,7.93
2023-03-27T16:26:21.244Z,5.23
2023-03-27T16:28:48.643Z,6.20
2023-03-27T16:31:17.183Z,6.30
2023-03-27T16:33:45.620Z,6.73
2023-03-27T16:36:13.692Z,5.17
2023-03-27T16:38:42.024Z,5.53
2023-03-27T16:41:13.488Z,4.97
2023-03-27T16:43:40.915Z,2.47
2023-03-27T16:46:11.684Z,3.00
2023-03-27T16:48:38.854Z,3.33
2023-03-27T16:51:06.565Z,5.13
2023-03-27T16:53:33.704Z,4.13
2023-03-27T16:56:00.824Z,4.57
2023-03-27T16:58:27.938Z,5.40
2023-03-27T17:00:55.068Z,2.80
2023-03-27T17:03:22.178Z,4.40
2023-03-27T17:05:49.975Z,5.80
2023-03-27T17:08:18.609Z,4.03
2023-03-27T17:10:46.496Z,5.03
2023-03-27T17:13:13.760Z,3.67
2023-03-27T17:15:40.999Z,6.30
2023-03-27T17:18:08.207Z,5.73
2023-03-27T17:20:35.523Z,6.13
2023-03-27T17:23:02.706Z,6.73
2023-03-27T17:25:29.939Z,4.90
2023-03-27T17:27:57.057Z,5.63
2023-03-27T17:30:36.735Z,9.07
2023-03-27T17:33:06.801Z,3.00
2023-03-27T17:35:34.278Z,4.53
2023-03-27T17:38:01.389Z,4.63
2023-03-27T17:40:28.487Z,6.27
2023-03-27T17:42:55.624Z,4.73
2023-03-27T17:45:23.929Z,5.20
2023-03-27T17:47:51.588Z,5.53
2023-03-27T17:50:18.827Z,8.90
2023-03-27T17:52:46.027Z,9.43
2023-03-27T17:55:13.179Z,4.97
2023-03-27T17:57:41.608Z,5.63
2023-03-27T18:00:09.714Z,5.07
2023-03-27T18:02:37.009Z,8.23
2023-03-27T18:05:05.063Z,5.03
2023-03-27T18:07:32.194Z,4.13
2023-03-27T18:09:59.320Z,6.67
2023-03-27T18:12:26.624Z,5.57
2023-03-27T18:14:53.854Z,7.57
2023-03-27T18:17:21.362Z,7.33
2023-03-27T18:19:48.530Z,9.53
2023-03-27T18:22:16.450Z,19.30
2023-03-27T18:24:44.527Z,12.00
2023-03-27T18:27:11.848Z,5.13
2023-03-27T18:29:39.132Z,9.80
2023-03-27T18:32:06.883Z,6.17
2023-03-27T18:34:34.282Z,6.57
2023-03-27T18:37:01.463Z,6.80
2023-03-27T18:39:28.668Z,8.37
2023-03-27T18:41:58.597Z,11.13
2023-03-27T18:44:26.045Z,12.10
2023-03-27T18:46:54.120Z,10.70
2023-03-27T18:49:25.056Z,11.37
2023-03-27T18:51:52.613Z,9.50
2023-03-27T18:54:19.737Z,5.67
2023-03-27T18:56:47.422Z,7.10
2023-03-27T18:59:15.591Z,4.40
2023-03-27T19:01:42.706Z,5.13
2023-03-27T19:04:09.838Z,4.83
2023-03-27T19:06:37.052Z,10.20
2023-03-27T19:09:04.239Z,7.77
2023-03-27T19:11:31.454Z,6.83
2023-03-27T19:13:58.562Z,7.30
2023-03-27T19:16:25.950Z,9.03
2023-03-27T19:18:53.065Z,8.83
2023-03-27T19:21:20.217Z,6.87
2023-03-27T19:23:47.398Z,6.17
2023-03-27T19:26:16.286Z,6.73
2023-03-27T19:28:44.232Z,6.30
2023-03-27T19:31:12.569Z,5.90
2023-03-27T19:33:40.280Z,8.03
2023-03-27T19:36:07.726Z,5.87
2023-03-27T19:38:37.274Z,5.97
2023-03-27T19:41:08.071Z,27.47
2023-03-27T19:43:35.370Z,30.57
2023-03-27T19:46:14.775Z,35.67
2023-03-27T19:48:43.758Z,41.53
2023-03-27T19:51:10.866Z,13.20
2023-03-27T19:53:38.052Z,11.77
2023-03-27T19:56:05.653Z,6.67
2023-03-27T19:58:32.805Z,9.20
2023-03-27T20:01:00.268Z,5.80
2023-03-27T20:03:29.385Z,7.90
2023-03-27T20:06:07.738Z,5.80
2023-03-27T20:08:38.059Z,9.60
2023-03-27T20:11:06.978Z,5.17
2023-03-27T20:13:42.539Z,5.43
2023-03-27T20:16:14.294Z,6.13
2023-03-27T20:18:42.755Z,5.80
2023-03-27T20:21:13.471Z,4.37
2023-03-27T20:23:42.036Z,7.43
2023-03-27T20:26:09.377Z,6.03
2023-03-27T20:28:36.822Z,6.93
2023-03-27T20:31:06.905Z,4.70
2023-03-27T20:33:34.095Z,6.40
2023-03-27T20:36:01.438Z,5.43
2023-03-27T20:38:31.547Z,5.07
2023-03-27T20:41:03.636Z,5.30
2023-03-27T20:43:34.777Z,7.67
2023-03-27T20:46:03.058Z,6.90
2023-03-27T20:48:40.439Z,5.30
2023-03-27T20:51:14.554Z,8.27
2023-03-27T20:53:42.873Z,7.00
2023-03-27T20:56:12.351Z,6.67
2023-03-27T20:58:40.069Z,8.77
2023-03-27T21:01:09.083Z,8.90
2023-03-27T21:03:37.562Z,9.27
2023-03-27T21:06:06.083Z,9.47
2023-03-27T21:08:34.491Z,10.43
2023-03-27T21:11:02.134Z,9.47
2023-03-27T21:13:29.580Z,10.13
2023-03-27T21:15:57.272Z,8.40
2023-03-27T21:18:25.026Z,10.40
2023-03-27T21:20:52.203Z,6.97
2023-03-27T21:23:19.646Z,9.33
2023-03-27T21:25:46.775Z,8.47
2023-03-27T21:28:13.880Z,7.73
2023-03-27T21:30:46.270Z,9.23
2023-03-27T21:33:18.667Z,9.47
2023-03-27T21:35:46.969Z,10.13
2023-03-27T21:38:15.543Z,9.13
2023-03-27T21:40:42.952Z,7.03
2023-03-27T21:43:10.460Z,9.37
2023-03-27T21:45:37.815Z,8.30
2023-03-27T21:48:05.409Z,8.43
2023-03-27T21:50:32.561Z,7.90
2023-03-27T21:52:59.660Z,8.73
2023-03-27T21:55:26.821Z,9.47
2023-03-27T21:57:53.984Z,10.33
2023-03-27T22:00:21.188Z,9.50
2023-03-27T22:02:48.516Z,8.77
2023-03-27T22:05:15.760Z,10.27
2023-03-27T22:07:43.385Z,11.90
2023-03-27T22:10:10.746Z,6.93
2023-03-27T22:12:38.166Z,11.03
2023-03-27T22:15:06.354Z,9.77
2023-03-27T22:17:35.386Z,9.87
2023-03-27T22:20:02.723Z,10.13
2023-03-27T22:22:29.849Z,9.17
2023-03-27T22:24:56.931Z,16.40
2023-03-27T22:27:24.032Z,9.50
2023-03-27T22:29:51.130Z,11.17
2023-03-27T22:32:18.252Z,10.67
2023-03-27T22:34:45.414Z,14.33
2023-03-27T22:37:12.550Z,10.17
2023-03-27T22:39:39.664Z,10.43
2023-03-27T22:42:06.889Z,10.10
2023-03-27T22:44:34.065Z,11.00
2023-03-27T22:47:01.474Z,10.33
2023-03-27T22:49:28.609Z,10.33
2023-03-27T22:51:55.875Z,7.10
2023-03-27T22:54:23.058Z,8.87
2023-03-27T22:56:50.988Z,9.70
2023-03-27T22:59:18.221Z,11.67
2023-03-27T23:01:45.455Z,9.17
2023-03-27T23:04:12.615Z,15.93
2023-03-27T23:06:39.783Z,10.03
2023-03-27T23:09:06.925Z,9.93
2023-03-27T23:11:34.051Z,11.17
2023-03-27T23:14:01.205Z,8.20
2023-03-27T23:16:28.390Z,8.77
2023-03-27T23:18:55.810Z,10.67
2023-03-27T23:21:22.878Z,9.73
2023-03-27T23:23:50.082Z,11.93
2023-03-27T23:26:18.159Z,13.63
2023-03-27T23:28:45.697Z,16.20
2023-03-27T23:31:17.059Z,10.93
2023-03-27T23:33:45.896Z,13.60
2023-03-27T23:36:14.311Z,17.67
2023-03-27T23:38:42.097Z,13.97
2023-03-27T23:41:10.314Z,12.60
2023-03-27T23:43:37.819Z,15.50
2023-03-27T23:46:08.621Z,11.20
2023-03-27T23:48:35.894Z,12.10
2023-03-27T23:51:03.036Z,15.07
2023-03-27T23:53:30.235Z,17.33
2023-03-27T23:55:58.563Z,14.37
2023-03-27T23:58:32.309Z,16.00
